Time;durP1;ratioP1;P1;durP2;ratioP2;P2;SDS_P1;SDS_P2;PMS_P1;PMS_P2;Temp;Humidity;BMP_temperature;BMP_pressure;BME280_temperature;BME280_humidity;BME280_pressure;Samples;Min_cycle;Max_cycle;Signal;HPM_P1;HPM_P2
2021/11/21 00:00:55;1105804.00;3.69;1920.81;226149.00;0.75;390.92;;;;;7.20;1.80;;;;;;2276416;61;1106;-89
2021/11/21 00:03:22;1117540.00;3.73;1941.82;179230.00;0.60;310.16;;;;;7.20;2.10;;;;;;2276365;61;1059;-87
2021/11/21 00:05:49;1002617.00;3.34;1737.11;123896.00;0.41;214.80;;;;;6.60;2.40;;;;;;2276283;61;1265;-89
2021/11/21 00:08:16;817405.00;2.72;1411.50;153634.00;0.51;266.07;;;;;6.90;5.30;;;;;;2276354;61;973;-90
2021/11/21 00:10:44;965676.00;3.22;1671.77;112600.00;0.38;195.32;;;;;7.40;7.20;;;;;;2276282;61;1060;-89
2021/11/21 00:13:12;740692.00;2.47;1277.88;123335.00;0.41;213.83;;;;;8.70;8.30;;;;;;2276315;61;1702;-88
2021/11/21 00:15:41;390587.00;1.30;673.62;94054.00;0.31;163.31;;;;;9.60;6.50;;;;;;2277404;61;1679;-89
2021/11/21 00:18:09;396680.00;1.32;684.10;98535.00;0.33;171.04;;;;;9.70;1.00;;;;;;2277661;61;1992;-88
2021/11/21 00:20:37;289914.00;0.97;500.58;100971.00;0.34;175.25;;;;;9.60;1.00;;;;;;2277722;61;1050;-88
2021/11/21 00:23:05;325353.00;1.08;561.50;90354.00;0.30;156.92;;;;;9.60;1.00;;;;;;2277675;61;1165;-88
2021/11/21 00:25:33;424876.00;1.42;732.57;88575.00;0.30;153.85;;;;;9.90;1.40;;;;;;2277585;61;1291;-88
2021/11/21 00:28:01;323136.00;1.08;557.69;99508.00;0.33;172.72;;;;;9.90;1.00;;;;;;2265005;61;929;-88
2021/11/21 00:30:28;696682.00;2.32;1201.49;128239.00;0.43;222.29;;;;;10.10;1.00;;;;;;2265079;61;1115;-88
2021/11/21 00:32:56;386663.00;1.29;666.88;92044.00;0.31;159.84;;;;;10.30;1.00;;;;;;2265078;61;1141;-86
2021/11/21 00:35:24;378424.00;1.26;652.72;90759.00;0.30;157.62;;;;;10.60;1.00;;;;;;2265063;61;1411;-89
2021/11/21 00:37:51;299695.00;1.00;517.40;86241.00;0.29;149.82;;;;;10.40;1.00;;;;;;2265030;61;1621;-88
2021/11/21 00:40:18;314278.00;1.05;542.46;99373.00;0.33;172.49;;;;;9.90;1.00;;;;;;2265024;61;2009;-89
2021/11/21 00:42:44;323920.00;1.08;559.04;95476.00;0.32;165.76;;;;;8.80;1.00;;;;;;2265067;61;1147;-90
2021/11/21 00:45:13;298988.00;1.00;516.18;96769.00;0.32;167.99;;;;;8.70;1.00;;;;;;2266534;61;1393;-89
2021/11/21 00:47:41;343305.00;1.14;592.35;79326.00;0.26;137.87;;;;;8.90;1.00;;;;;;2277636;61;1029;-89
2021/11/21 00:50:11;396898.00;1.32;684.47;93160.00;0.31;161.76;;;;;8.80;1.00;;;;;;2277650;61;941;-88
2021/11/21 00:52:38;303093.00;1.01;523.24;88726.00;0.30;154.11;;;;;8.80;1.00;;;;;;2265016;61;972;-88
2021/11/21 00:55:11;343074.00;1.14;591.96;91194.00;0.30;158.37;;;;;9.00;1.00;;;;;;2261627;61;1427;-89
2021/11/21 00:57:38;326091.00;1.09;562.77;91981.00;0.31;159.73;;;;;8.50;1.00;;;;;;2252969;61;951;-89
2021/11/21 01:00:08;273462.00;0.91;472.30;99083.00;0.33;171.99;;;;;8.30;1.00;;;;;;2252915;61;2010;-88
2021/11/21 01:02:38;321903.00;1.07;555.57;91688.00;0.31;159.22;;;;;8.60;1.00;;;;;;2253057;61;1082;-89
2021/11/21 01:05:06;285412.00;0.95;492.84;91965.00;0.31;159.70;;;;;8.40;1.00;;;;;;2248883;61;1355;-89
2021/11/21 01:07:36;290661.00;0.97;501.87;70030.00;0.23;121.81;;;;;7.90;1.00;;;;;;2249006;61;1016;-88
2021/11/21 01:10:05;267087.00;0.89;461.34;89633.00;0.30;155.67;;;;;8.30;1.00;;;;;;2249906;61;1011;-89
2021/11/21 01:12:32;288595.00;0.96;498.31;96154.00;0.32;166.93;;;;;7.90;1.00;;;;;;2252998;61;1004;-89
2021/11/21 01:14:59;322926.00;1.08;557.33;88312.00;0.29;153.39;;;;;8.10;1.00;;;;;;2252946;61;1382;-89
2021/11/21 01:17:26;476916.00;1.59;822.09;96838.00;0.32;168.11;;;;;8.00;1.00;;;;;;2252927;61;1543;-89
2021/11/21 01:19:59;256604.00;0.86;443.31;99584.00;0.33;172.85;;;;;8.10;1.00;;;;;;2252965;61;2001;-88
2021/11/21 01:22:28;364417.00;1.21;628.64;102727.00;0.34;178.28;;;;;7.60;1.00;;;;;;2263090;61;1135;-88
2021/11/21 01:24:55;358054.00;1.19;617.70;85480.00;0.28;148.50;;;;;7.50;1.00;;;;;;2277387;61;1278;-88
2021/11/21 01:27:23;228587.00;0.76;395.12;75447.00;0.25;131.17;;;;;7.30;1.00;;;;;;2276831;61;1035;-90
2021/11/21 01:29:50;293694.00;0.98;507.08;85598.00;0.29;148.71;;;;;7.30;1.00;;;;;;2264259;61;1002;-90
2021/11/21 01:32:17;222909.00;0.74;385.35;84169.00;0.28;146.24;;;;;8.00;1.00;;;;;;2264310;61;1158;-89
2021/11/21 01:34:44;204477.00;0.68;353.63;97994.00;0.33;170.11;;;;;8.30;3.30;;;;;;2264261;61;1386;-88
2021/11/21 01:37:12;235247.00;0.78;406.58;97376.00;0.32;169.04;;;;;8.70;1.00;;;;;;2264308;61;1002;-89
2021/11/21 01:39:40;184428.00;0.61;319.11;89880.00;0.30;156.10;;;;;8.90;1.00;;;;;;2254305;61;1990;-90
2021/11/21 01:42:08;283019.00;0.94;488.73;101811.00;0.34;176.70;;;;;8.50;1.00;;;;;;2264281;61;1022;-88
2021/11/21 01:44:36;238022.00;0.79;411.35;91836.00;0.31;159.48;;;;;9.60;4.20;;;;;;2264201;61;1317;-87
2021/11/21 01:47:05;186012.00;0.62;321.84;95983.00;0.32;166.64;;;;;9.50;1.00;;;;;;2259354;61;951;-86
2021/11/21 01:49:32;225796.00;0.75;390.32;93077.00;0.31;161.62;;;;;8.80;1.00;;;;;;2276808;61;1016;-88
2021/11/21 01:51:59;177579.00;0.59;307.32;96502.00;0.32;167.53;;;;;9.00;1.00;;;;;;2276778;61;934;-87
2021/11/21 01:54:28;11581.00;0.04;20.69;0.00;0.00;0.62;;;;;9.00;1.00;;;;;;2266333;61;966;-87
2021/11/21 01:56:55;213848.00;0.71;369.76;84950.00;0.28;147.59;;;;;9.10;1.00;;;;;;2276764;61;1415;-88
2021/11/21 01:59:21;74.00;0.00;0.75;0.00;0.00;0.62;;;;;9.20;1.00;;;;;;2276743;61;1922;-89
2021/11/21 02:01:48;11855.00;0.04;21.16;0.00;0.00;0.62;;;;;9.20;1.00;;;;;;2276707;61;1704;-87
2021/11/21 02:04:15;0.00;0.00;0.62;0.00;0.00;0.62;;;;;9.40;1.00;;;;;;2276704;61;1107;-87
2021/11/21 02:06:42;13704.00;0.05;24.37;0.00;0.00;0.62;;;;;9.40;1.00;;;;;;2276623;61;1678;-88
2021/11/21 02:09:09;0.00;0.00;0.62;0.00;0.00;0.62;;;;;9.00;1.00;;;;;;2276725;61;1067;-89
2021/11/21 02:11:37;4083.00;0.01;7.70;0.00;0.00;0.62;;;;;10.00;1.80;;;;;;2266309;61;1103;-88
2021/11/21 02:14:04;24545.00;0.08;43.14;0.00;0.00;0.62;;;;;9.90;1.00;;;;;;2266270;61;985;-88
2021/11/21 02:16:32;0.00;0.00;0.62;0.00;0.00;0.62;;;;;10.10;1.00;;;;;;2269524;61;1492;-89
2021/11/21 02:19:00;44022.00;0.15;76.85;0.00;0.00;0.62;;;;;9.60;1.00;;;;;;2276633;61;2002;-88
2021/11/21 02:21:30;0.00;0.00;0.62;0.00;0.00;0.62;;;;;9.60;1.00;;;;;;2276678;61;1013;-88
2021/11/21 02:23:57;0.00;0.00;0.62;0.00;0.00;0.62;;;;;9.60;1.00;;;;;;2276571;61;1671;-88
2021/11/21 02:26:25;22225.00;0.07;39.12;0.00;0.00;0.62;;;;;9.70;1.00;;;;;;2269521;61;1421;-86
2021/11/21 02:28:54;15432.00;0.05;27.36;0.00;0.00;0.62;;;;;9.10;1.00;;;;;;2276394;61;1707;-87
2021/11/21 02:31:22;0.00;0.00;0.62;0.00;0.00;0.62;;;;;9.30;1.00;;;;;;2263808;61;965;-88
2021/11/21 02:33:51;0.00;0.00;0.62;0.00;0.00;0.62;;;;;9.40;1.00;;;;;;2260700;61;1004;-88
2021/11/21 02:36:19;0.00;0.00;0.62;0.00;0.00;0.62;;;;;9.10;1.00;;;;;;2259968;61;1440;-87
2021/11/21 02:38:48;13219.00;0.04;23.53;0.00;0.00;0.62;;;;;9.20;1.00;;;;;;2259846;61;1997;-87
2021/11/21 02:41:17;0.00;0.00;0.62;0.00;0.00;0.62;;;;;8.70;1.00;;;;;;2250131;61;968;-90
2021/11/21 02:43:46;115309.00;0.38;199.99;0.00;0.00;0.62;;;;;7.90;1.00;;;;;;2260042;61;1077;-90
2021/11/21 02:46:13;37287.00;0.12;65.19;0.00;0.00;0.62;;;;;8.10;1.00;;;;;;2260071;61;1431;-88
2021/11/21 02:48:40;0.00;0.00;0.62;0.00;0.00;0.62;;;;;9.10;4.20;;;;;;2260728;61;1017;-88
2021/11/21 02:51:09;19694.00;0.07;34.74;0.00;0.00;0.62;;;;;9.60;1.00;;;;;;2251954;61;919;-88
2021/11/21 02:53:39;0.00;0.00;0.62;0.00;0.00;0.62;;;;;10.40;1.00;;;;;;2250025;61;981;-89
2021/11/21 02:56:11;0.00;0.00;0.62;0.00;0.00;0.62;;;;;10.70;1.00;;;;;;2259955;61;1432;-88
2021/11/21 02:58:38;29386.00;0.10;51.52;0.00;0.00;0.62;;;;;10.50;1.00;;;;;;2256607;61;971;-88
2021/11/21 03:01:08;0.00;0.00;0.62;0.00;0.00;0.62;;;;;10.10;1.00;;;;;;2247929;61;2017;-88
2021/11/21 03:03:35;111784.00;0.37;193.91;0.00;0.00;0.62;;;;;9.80;1.00;;;;;;2241440;61;937;-87
2021/11/21 03:06:02;0.00;0.00;0.62;0.00;0.00;0.62;;;;;9.80;1.00;;;;;;2248003;61;1313;-88
2021/11/21 03:08:29;0.00;0.00;0.62;0.00;0.00;0.62;;;;;9.80;1.00;;;;;;2250300;61;1028;-88
2021/11/21 03:11:03;12364.00;0.04;22.04;0.00;0.00;0.62;;;;;9.30;1.00;;;;;;2254047;61;1011;-86
2021/11/21 03:13:31;0.00;0.00;0.62;0.00;0.00;0.62;;;;;9.20;1.00;;;;;;2263956;61;1015;-88
2021/11/21 03:15:58;25661.00;0.09;45.07;0.00;0.00;0.62;;;;;9.40;1.00;;;;;;2257272;61;1447;-88
2021/11/21 03:18:25;18541.00;0.06;32.74;0.00;0.00;0.62;;;;;9.50;1.00;;;;;;2266272;61;1026;-87
2021/11/21 03:20:52;14909.00;0.05;26.45;0.00;0.00;0.62;;;;;9.30;1.00;;;;;;2263860;61;2004;-88
2021/11/21 03:23:18;15013.00;0.05;26.63;0.00;0.00;0.62;;;;;9.60;1.00;;;;;;2263910;61;1018;-87
2021/11/21 03:25:45;0.00;0.00;0.62;0.00;0.00;0.62;;;;;9.40;1.00;;;;;;2263837;61;1391;-88
2021/11/21 03:28:12;0.00;0.00;0.62;0.00;0.00;0.62;;;;;10.00;1.00;;;;;;2263889;61;1081;-88
2021/11/21 03:30:42;0.00;0.00;0.62;0.00;0.00;0.62;;;;;10.00;1.00;;;;;;2263938;61;1033;-88
2021/11/21 03:33:09;5642.00;0.02;10.40;0.00;0.00;0.62;;;;;10.10;1.00;;;;;;2260557;61;1087;-87
2021/11/21 03:35:36;0.00;0.00;0.62;0.00;0.00;0.62;;;;;9.70;1.00;;;;;;2263895;61;1314;-87
2021/11/21 03:38:04;2743.00;0.01;5.37;0.00;0.00;0.62;;;;;9.90;1.00;;;;;;2265537;61;1021;-88
2021/11/21 03:40:31;0.00;0.00;0.62;0.00;0.00;0.62;;;;;9.70;1.00;;;;;;2267838;61;2004;-87
2021/11/21 03:43:00;27840.00;0.09;48.84;0.00;0.00;0.62;;;;;9.10;1.00;;;;;;2267896;61;953;-87
2021/11/21 03:45:27;0.00;0.00;0.62;0.00;0.00;0.62;;;;;9.00;1.00;;;;;;2264472;61;1264;-88
2021/11/21 03:47:55;148.00;0.00;0.88;0.00;0.00;0.62;;;;;9.00;1.00;;;;;;2263774;61;975;-87
2021/11/21 03:50:22;0.00;0.00;0.62;0.00;0.00;0.62;;;;;9.00;1.00;;;;;;2263812;61;1007;-87
2021/11/21 03:52:49;22958.00;0.08;40.39;0.00;0.00;0.62;;;;;9.10;1.00;;;;;;2263876;61;1069;-87
2021/11/21 03:55:18;9963.00;0.03;17.89;0.00;0.00;0.62;;;;;8.30;1.00;;;;;;2255710;61;1254;-88
2021/11/21 03:57:46;5389.00;0.02;9.96;0.00;0.00;0.62;;;;;8.10;1.00;;;;;;2256988;61;1005;-88
2021/11/21 04:00:18;75961.00;0.25;132.06;0.00;0.00;0.62;;;;;7.10;1.00;;;;;;2257120;61;2007;-88
2021/11/21 04:02:45;40266.00;0.13;70.35;0.00;0.00;0.62;;;;;7.10;1.00;;;;;;2257185;61;969;-87
2021/11/21 04:05:14;29052.00;0.10;50.94;0.00;0.00;0.62;;;;;7.20;1.00;;;;;;2252429;61;1403;-88
2021/11/21 04:07:41;8205.00;0.03;14.84;0.00;0.00;0.62;;;;;7.00;1.90;;;;;;2249174;61;1004;-87
2021/11/21 04:10:10;1265.00;0.00;2.81;0.00;0.00;0.62;;;;;7.10;1.00;;;;;;2255725;61;1133;-87
2021/11/21 04:12:37;318527.00;1.06;549.77;108937.00;0.36;189.00;;;;;7.40;1.00;;;;;;2250679;61;1015;-88
2021/11/21 04:15:05;29265.00;0.10;51.31;0.00;0.00;0.62;;;;;8.00;1.00;;;;;;2263680;61;1417;-87
2021/11/21 04:17:33;33930.00;0.11;59.38;0.00;0.00;0.62;;;;;7.60;1.00;;;;;;2260434;61;994;-87
2021/11/21 04:20:00;0.00;0.00;0.62;0.00;0.00;0.62;;;;;7.60;1.00;;;;;;2263770;61;1995;-89
2021/11/21 04:22:28;0.00;0.00;0.62;0.00;0.00;0.62;;;;;8.60;1.00;;;;;;2265578;61;930;-88
2021/11/21 04:24:57;0.00;0.00;0.62;0.00;0.00;0.62;;;;;9.20;1.00;;;;;;2272527;61;1454;-87
2021/11/21 04:27:26;52618.00;0.18;91.71;0.00;0.00;0.62;;;;;9.30;1.00;;;;;;2276285;61;1042;-88
2021/11/21 04:29:54;0.00;0.00;0.62;0.00;0.00;0.62;;;;;8.70;1.00;;;;;;2263559;61;933;-88
2021/11/21 04:32:21;5161.00;0.02;9.56;0.00;0.00;0.62;;;;;8.20;1.00;;;;;;2260314;61;1031;-87
2021/11/21 04:34:48;37462.00;0.12;65.50;0.00;0.00;0.62;;;;;7.20;1.00;;;;;;2263599;61;1376;-87
2021/11/21 04:37:15;57261.00;0.19;99.74;0.00;0.00;0.62;;;;;7.10;1.00;;;;;;2263690;61;963;-86
2021/11/21 04:39:43;0.00;0.00;0.62;0.00;0.00;0.62;;;;;7.10;1.00;;;;;;2255633;61;1994;-87
2021/11/21 04:42:11;125901.00;0.42;218.26;0.00;0.00;0.62;;;;;7.90;1.00;;;;;;2255726;61;1040;-88
2021/11/21 04:44:38;1942.00;0.01;3.99;0.00;0.00;0.62;;;;;8.20;1.00;;;;;;2243704;61;1345;-87
2021/11/21 04:47:05;5320.00;0.02;9.84;0.00;0.00;0.62;;;;;7.60;1.00;;;;;;2240206;61;993;-88
2021/11/21 04:49:32;34688.00;0.12;60.70;0.00;0.00;0.62;;;;;7.20;1.00;;;;;;2231946;62;983;-87
2021/11/21 04:51:58;41125.00;0.14;71.83;0.00;0.00;0.62;;;;;7.30;1.00;;;;;;2220241;62;982;-89
2021/11/21 04:54:26;0.00;0.00;0.62;0.00;0.00;0.62;;;;;7.50;1.00;;;;;;2221589;62;1118;-88
2021/11/21 04:56:54;24993.00;0.08;43.92;0.00;0.00;0.62;;;;;7.90;1.00;;;;;;2232268;62;1311;-88
2021/11/21 04:59:21;7430.00;0.02;13.50;0.00;0.00;0.62;;;;;8.00;1.00;;;;;;2232579;62;1015;-87
2021/11/21 05:01:49;32510.00;0.11;56.93;0.00;0.00;0.62;;;;;7.90;1.00;;;;;;2233477;62;2024;-87
2021/11/21 05:04:17;0.00;0.00;0.62;0.00;0.00;0.62;;;;;8.20;1.00;;;;;;2235323;61;1010;-88
2021/11/21 05:06:44;0.00;0.00;0.62;0.00;0.00;0.62;;;;;8.00;1.00;;;;;;2253772;61;1462;-88
2021/11/21 05:09:11;9889.00;0.03;17.76;0.00;0.00;0.62;;;;;8.50;1.00;;;;;;2258650;61;1018;-89
2021/11/21 05:11:37;74.00;0.00;0.75;0.00;0.00;0.62;;;;;7.70;1.00;;;;;;2260239;61;1038;-88
2021/11/21 05:14:06;36905.00;0.12;64.53;0.00;0.00;0.62;;;;;6.90;1.00;;;;;;2260835;61;1050;-88
2021/11/21 05:16:33;205004.00;0.68;354.54;0.00;0.00;0.62;;;;;6.90;1.00;;;;;;2264315;61;1376;-88
2021/11/21 05:19:01;17500.00;0.06;30.94;0.00;0.00;0.62;;;;;7.00;1.00;;;;;;2264369;61;942;-86
2021/11/21 05:21:28;7598.00;0.03;13.79;0.00;0.00;0.62;;;;;6.80;1.00;;;;;;2264235;61;2006;-88
2021/11/21 05:23:54;35762.00;0.12;62.56;0.00;0.00;0.62;;;;;7.10;1.00;;;;;;2264243;61;1082;-88
2021/11/21 05:26:22;60642.00;0.20;105.59;0.00;0.00;0.62;;;;;7.00;1.00;;;;;;2264263;61;1278;-87
2021/11/21 05:28:49;7570.00;0.03;13.74;0.00;0.00;0.62;;;;;6.30;1.00;;;;;;2265909;61;1043;-87
2021/11/21 05:31:17;35649.00;0.12;62.36;0.00;0.00;0.62;;;;;6.00;1.00;;;;;;2266443;61;966;-88
2021/11/21 05:33:44;16426.00;0.05;29.08;0.00;0.00;0.62;;;;;6.80;1.00;;;;;;2276912;61;985;-88
2021/11/21 05:36:11;53267.00;0.18;92.84;0.00;0.00;0.62;;;;;6.90;1.00;;;;;;2264129;61;1399;-88
2021/11/21 05:38:38;226059.00;0.75;390.77;0.00;0.00;0.62;;;;;6.20;1.00;;;;;;2264226;61;1139;-88
2021/11/21 05:41:05;0.00;0.00;0.62;0.00;0.00;0.62;;;;;5.70;1.00;;;;;;2260077;61;1997;-88
2021/11/21 05:43:32;18350.00;0.06;32.41;0.00;0.00;0.62;;;;;6.90;6.30;;;;;;2256861;61;1019;-88
2021/11/21 05:45:59;78574.00;0.26;136.57;0.00;0.00;0.62;;;;;7.10;1.00;;;;;;2260218;61;1434;-89
2021/11/21 05:48:27;0.00;0.00;0.62;0.00;0.00;0.62;;;;;7.20;1.00;;;;;;2253551;61;966;-88
2021/11/21 05:50:54;0.00;0.00;0.62;0.00;0.00;0.62;;;;;8.00;3.80;;;;;;2260256;61;1131;-88
2021/11/21 05:53:21;14267.00;0.05;25.34;0.00;0.00;0.62;;;;;8.50;3.20;;;;;;2260605;61;1052;-87
2021/11/21 05:55:48;0.00;0.00;0.62;0.00;0.00;0.62;;;;;8.60;1.00;;;;;;2257530;61;1457;-88
2021/11/21 05:58:18;3047.00;0.01;5.90;0.00;0.00;0.62;;;;;8.60;1.00;;;;;;2265439;61;924;-88
2021/11/21 06:00:46;0.00;0.00;0.62;0.00;0.00;0.62;;;;;8.10;1.00;;;;;;2264127;61;1920;-89
2021/11/21 06:05:47;0.00;0.00;0.62;0.00;0.00;0.62;;;;;8.10;1.00;;;;;;2287705;61;1151;-88
2021/11/21 06:18:08;0.00;0.00;0.62;0.00;0.00;0.62;;;;;7.10;1.00;;;;;;2283463;61;1355;-88
2021/11/21 06:23:04;0.00;0.00;0.62;0.00;0.00;0.62;;;;;8.10;1.40;;;;;;2283523;61;1302;-89
2021/11/21 07:00:06;4136.00;0.01;7.79;0.00;0.00;0.62;;;;;7.60;1.00;;;;;;840380;56;3617;-87
2021/11/21 08:43:56;568794.00;1.90;980.37;27048.00;0.09;47.47;;;;;8.30;1.00;;;;;;2283898;61;1285;-90
2021/11/21 09:21:08;22549.00;0.08;39.68;0.00;0.00;0.62;;;;;7.70;1.00;;;;;;2283402;61;1953;-90
2021/11/21 09:55:55;0.00;0.00;0.62;0.00;0.00;0.62;;;;;7.70;1.00;;;;;;2279547;61;1156;-89
2021/11/21 10:00:50;22461.00;0.07;39.53;0.00;0.00;0.62;;;;;7.30;1.00;;;;;;2278165;61;1891;-83
2021/11/21 10:03:18;115583.00;0.39;200.46;0.00;0.00;0.62;;;;;6.60;1.90;;;;;;2269843;61;1460;-86
2021/11/21 10:23:22;60376.00;0.20;105.13;0.00;0.00;0.62;;;;;8.10;1.00;;;;;;2283928;60;1388;-87
2021/11/21 10:45:37;574782.00;1.92;990.70;92510.00;0.31;160.64;;;;;8.10;1.00;;;;;;2476982;39;3705;31
2021/11/21 10:50:34;31783.00;0.11;55.67;0.00;0.00;0.62;;;;;9.40;1.90;;;;;;2279104;61;872;-88
2021/11/21 10:53:06;0.00;0.00;0.62;0.00;0.00;0.62;;;;;9.80;1.00;;;;;;2277607;61;387;-90
2021/11/21 10:58:10;91498.00;0.30;158.89;0.00;0.00;0.62;;;;;9.60;1.00;;;;;;2275216;61;1152;-88
2021/11/21 11:50:35;153835.00;0.51;266.42;0.00;0.00;0.62;;;;;8.80;1.00;;;;;;2330797;55;3737;31
2021/11/21 15:15:10;58603.00;0.20;102.06;0.00;0.00;0.62;;;;;9.60;1.00;;;;;;2428467;55;3232;31
2021/11/21 15:27:57;281335.00;0.94;485.83;87707.00;0.29;152.35;;;;;9.10;1.00;;;;;;2432008;40;3209;31
2021/11/21 16:06:00;75881.00;0.25;131.92;0.00;0.00;0.62;;;;;8.10;3.70;;;;;;2279141;61;1124;-85
2021/11/21 16:28:15;328675.00;1.10;567.21;0.00;0.00;0.62;;;;;8.20;3.10;;;;;;2518253;55;3667;31
2021/11/21 20:02:06;336429.00;1.12;580.54;0.00;0.00;0.62;;;;;10.20;1.00;;;;;;2283425;61;1932;-88
2021/11/21 21:36:27;2057236.00;6.86;3742.52;63079.00;0.21;109.80;;;;;10.50;1.00;;;;;;2283343;61;973;-92
2021/11/21 21:49:08;45725.00;0.15;79.79;0.00;0.00;0.62;;;;;9.40;1.00;;;;;;2428355;40;1836;31
2021/11/21 22:01:35;361773.00;1.21;624.10;0.00;0.00;0.62;;;;;8.30;6.20;;;;;;2516156;40;1996;31
2021/11/21 22:14:16;751318.00;2.50;1296.35;0.00;0.00;0.62;;;;;9.50;3.80;;;;;;2520503;55;2004;31
2021/11/21 22:49:13;1800880.00;6.00;3223.16;96237.00;0.32;167.08;;;;;8.80;2.70;;;;;;2283082;61;1009;-90
2021/11/21 22:51:40;949653.00;3.17;1643.50;47851.00;0.16;83.47;;;;;9.00;2.60;;;;;;2513958;55;2423;31
2021/11/21 23:01:30;1547133.00;5.16;2732.13;0.00;0.00;0.62;;;;;8.90;2.80;;;;;;2520752;40;2601;31
2021/11/21 23:03:57;1729792.00;5.77;3083.46;21921.00;0.07;38.60;;;;;9.10;2.40;;;;;;2515180;55;2396;31
2021/11/21 23:16:23;1219829.00;4.07;2126.11;58530.00;0.20;101.94;;;;;8.40;4.00;;;;;;2283021;61;1330;-89
2021/11/21 23:18:50;1134604.00;3.78;1972.42;59550.00;0.20;103.70;;;;;8.60;2.60;;;;;;2277373;61;1160;-89
2021/11/21 23:28:40;1726363.00;5.75;3076.76;69667.00;0.23;121.18;;;;;9.50;2.20;;;;;;2515839;55;1989;31
2021/11/21 23:48:22;1285686.00;4.29;2245.93;42647.00;0.14;74.47;;;;;9.30;1.70;;;;;;2516438;40;1893;31
